createdAt,value
2023-10-10T00:15:23.820Z,21.50
2023-10-10T00:17:50.703Z,21.50
2023-10-10T00:20:23.304Z,21.50
2023-10-10T00:27:16.370Z,21.60
2023-10-10T00:29:46.079Z,21.40
2023-10-10T00:32:23.047Z,21.50
2023-10-10T00:34:51.878Z,21.50
2023-10-10T00:37:27.110Z,21.50
2023-10-10T00:39:54.007Z,21.50
2023-10-10T00:42:21.770Z,21.50
2023-10-10T00:44:49.505Z,21.50
2023-10-10T00:47:17.370Z,21.50
2023-10-10T00:49:46.442Z,21.50
2023-10-10T00:52:17.953Z,21.50
2023-10-10T00:54:45.043Z,21.50
2023-10-10T00:57:15.107Z,21.50
2023-10-10T00:59:46.098Z,21.50
2023-10-10T04:40:46.677Z,20.30
2023-10-10T04:43:31.898Z,20.10
2023-10-10T04:46:17.269Z,20.20
2023-10-10T04:49:02.451Z,20.20
2023-10-10T04:51:47.793Z,20.30
2023-10-10T04:54:33.008Z,20.20
2023-10-10T04:57:18.634Z,20.30
2023-10-10T05:00:04.254Z,20.30
2023-10-10T05:02:49.663Z,20.30
2023-10-10T05:05:35.244Z,20.20
2023-10-10T05:08:20.625Z,20.20
2023-10-10T05:11:06.024Z,20.20
2023-10-10T05:13:51.257Z,20.20
2023-10-10T05:16:36.428Z,20.20
2023-10-10T05:19:21.823Z,20.30
2023-10-10T05:22:07.043Z,20.20
2023-10-10T05:24:37.132Z,20.20
2023-10-10T05:27:03.990Z,20.20
2023-10-10T05:29:34.664Z,20.20
2023-10-10T05:32:09.272Z,20.20
2023-10-10T05:34:36.275Z,20.20
2023-10-10T05:37:03.019Z,20.20
2023-10-10T05:39:33.651Z,20.20
2023-10-10T05:42:02.351Z,20.10
2023-10-10T05:44:30.633Z,20.20
2023-10-10T05:46:57.441Z,20.10
2023-10-10T05:49:24.444Z,20.10
2023-10-10T05:51:53.002Z,20.10
2023-10-10T05:54:20.480Z,20.10
2023-10-10T05:56:47.868Z,20.10
2023-10-10T05:59:14.807Z,20.10
2023-10-10T06:01:41.642Z,20.00
2023-10-10T06:04:09.440Z,19.90
2023-10-10T06:06:37.355Z,19.90
2023-10-10T06:09:06.414Z,19.80
2023-10-10T06:11:35.414Z,19.70
2023-10-10T06:14:02.935Z,19.70
2023-10-10T06:16:29.936Z,19.60
2023-10-10T06:18:56.798Z,19.60
2023-10-10T06:21:23.588Z,19.60
2023-10-10T06:23:51.411Z,19.50
2023-10-10T06:26:22.782Z,19.50
2023-10-10T06:28:54.439Z,19.50
2023-10-10T06:31:22.369Z,19.40
2023-10-10T06:33:53.150Z,19.40
2023-10-10T06:36:24.277Z,19.40
2023-10-10T06:39:04.938Z,19.40
2023-10-10T06:41:40.357Z,19.40
2023-10-10T06:44:19.263Z,19.40
2023-10-10T06:46:50.400Z,19.40
2023-10-10T06:49:19.503Z,19.40
2023-10-10T06:51:46.567Z,19.50
2023-10-10T06:54:29.487Z,19.50
2023-10-10T06:56:59.903Z,19.50
2023-10-10T06:59:30.278Z,19.60
2023-10-10T07:02:01.283Z,19.60
2023-10-10T07:04:28.722Z,19.60
2023-10-10T07:07:01.797Z,19.70
2023-10-10T07:09:30.199Z,19.70
2023-10-10T07:12:10.673Z,19.70
2023-10-10T07:14:42.044Z,19.80
2023-10-10T07:17:15.079Z,19.80
2023-10-10T07:20:01.956Z,19.80
2023-10-10T07:22:29.580Z,19.80
2023-10-10T07:25:07.774Z,19.80
2023-10-10T07:27:44.890Z,19.90
2023-10-10T07:30:18.028Z,19.90
2023-10-10T07:32:45.960Z,19.90
2023-10-10T07:35:15.958Z,19.90
2023-10-10T07:37:46.494Z,20.00
2023-10-10T07:40:21.414Z,20.00
2023-10-10T07:42:50.942Z,20.00
2023-10-10T07:45:27.722Z,20.00
2023-10-10T07:48:00.437Z,20.00
2023-10-10T07:50:58.613Z,20.00
2023-10-10T07:53:35.059Z,20.00
2023-10-10T07:56:04.607Z,20.00
2023-10-10T07:58:52.565Z,20.00
2023-10-10T08:01:20.838Z,20.10
2023-10-10T08:03:48.848Z,20.10
2023-10-10T08:06:23.247Z,20.10
2023-10-10T08:09:11.017Z,20.20
2023-10-10T08:11:39.553Z,20.20
2023-10-10T08:14:08.323Z,20.20
2023-10-10T08:16:45.040Z,20.20
2023-10-10T08:19:12.245Z,20.30
2023-10-10T08:21:40.918Z,20.30
2023-10-10T08:24:13.206Z,20.40
2023-10-10T08:26:40.419Z,20.40
2023-10-10T08:29:11.619Z,20.40
2023-10-10T08:31:40.597Z,20.50
2023-10-10T08:34:10.385Z,20.50
2023-10-10T08:36:38.581Z,20.50
2023-10-10T08:39:26.649Z,20.60
2023-10-10T08:41:54.235Z,20.60
2023-10-10T08:44:22.212Z,20.60
2023-10-10T08:46:50.246Z,20.60
2023-10-10T08:49:17.487Z,20.60
2023-10-10T08:51:45.915Z,20.70
2023-10-10T08:54:14.233Z,20.70
2023-10-10T08:56:45.965Z,20.70
2023-10-10T08:59:13.561Z,20.70
2023-10-10T09:01:43.334Z,20.70
2023-10-10T09:04:20.023Z,20.80
2023-10-10T09:06:57.554Z,20.80
2023-10-10T09:09:39.205Z,20.80
2023-10-10T09:12:13.890Z,20.80
2023-10-10T09:14:42.465Z,20.90
2023-10-10T09:17:29.885Z,20.90
2023-10-10T09:20:04.479Z,20.90
2023-10-10T09:22:44.442Z,20.90
2023-10-10T09:25:27.664Z,20.90
2023-10-10T09:28:04.718Z,21.00
2023-10-10T09:30:33.507Z,21.00
2023-10-10T09:33:03.907Z,21.00
2023-10-10T09:35:31.210Z,21.00
2023-10-10T09:38:01.273Z,21.00
2023-10-10T09:40:34.737Z,21.10
2023-10-10T09:43:02.268Z,21.20
2023-10-10T09:45:48.791Z,21.20
2023-10-10T09:48:29.390Z,21.30
2023-10-10T09:51:18.164Z,21.40
2023-10-10T09:53:48.471Z,21.40
2023-10-10T09:56:16.537Z,21.50
2023-10-10T09:58:48.144Z,21.60
2023-10-10T10:01:24.603Z,21.70
2023-10-10T10:04:01.727Z,21.70
2023-10-10T10:07:07.236Z,21.80
2023-10-10T10:10:10.567Z,22.00
2023-10-10T10:13:01.692Z,22.10
2023-10-10T10:15:49.874Z,22.20
2023-10-10T10:18:28.865Z,22.20
2023-10-10T10:21:08.475Z,22.30
2023-10-10T10:23:39.580Z,22.30
2023-10-10T10:26:09.731Z,22.30
2023-10-10T10:28:38.057Z,22.40
2023-10-10T10:31:09.246Z,22.60
2023-10-10T10:33:38.144Z,22.70
2023-10-10T10:36:15.915Z,22.80
2023-10-10T10:39:03.377Z,22.80
2023-10-10T10:41:43.098Z,22.90
2023-10-10T10:44:13.727Z,23.00
2023-10-10T10:46:41.951Z,23.10
2023-10-10T10:49:10.319Z,23.20
2023-10-10T10:51:43.376Z,23.30
2023-10-10T10:54:12.111Z,23.40
2023-10-10T10:56:39.621Z,23.50
2023-10-10T10:59:14.893Z,23.60
2023-10-10T11:01:53.940Z,23.70
2023-10-10T11:04:34.557Z,23.80
2023-10-10T11:07:08.883Z,23.90
2023-10-10T11:09:44.293Z,24.00
2023-10-10T11:12:11.174Z,24.00
2023-10-10T11:14:46.417Z,24.10
2023-10-10T11:17:20.410Z,24.20
2023-10-10T11:19:48.248Z,24.30
2023-10-10T11:22:33.615Z,24.40
2023-10-10T11:25:05.777Z,24.40
2023-10-10T11:27:45.466Z,24.50
2023-10-10T11:30:13.895Z,24.70
2023-10-10T11:32:48.720Z,24.70
2023-10-10T11:35:27.530Z,24.80
2023-10-10T11:38:01.012Z,24.90
2023-10-10T11:40:32.160Z,25.00
2023-10-10T11:43:00.559Z,25.00
2023-10-10T11:45:28.437Z,25.10
2023-10-10T11:48:06.545Z,25.20
2023-10-10T11:50:52.870Z,25.20
2023-10-10T11:53:24.917Z,25.40
2023-10-10T11:55:55.874Z,25.50
2023-10-10T11:58:36.942Z,25.60
2023-10-10T12:01:07.127Z,25.70
2023-10-10T12:03:40.923Z,26.20
2023-10-10T12:06:16.090Z,26.70
2023-10-10T12:08:46.714Z,26.90
2023-10-10T12:11:13.765Z,26.90
2023-10-10T12:13:40.707Z,26.80
2023-10-10T12:16:14.006Z,26.80
2023-10-10T12:18:45.882Z,27.00
2023-10-10T12:21:16.181Z,27.30
2023-10-10T12:23:43.324Z,27.60
2023-10-10T12:26:11.227Z,27.60
2023-10-10T12:28:38.063Z,28.10
2023-10-10T12:31:05.113Z,28.00
2023-10-10T12:33:33.050Z,27.70
2023-10-10T12:36:00.104Z,27.60
2023-10-10T12:38:27.012Z,27.50
2023-10-10T12:40:55.100Z,27.40
2023-10-10T12:43:25.874Z,27.40
2023-10-10T12:45:55.575Z,27.30
2023-10-10T12:48:23.412Z,27.30
2023-10-10T12:50:51.679Z,27.30
2023-10-10T12:53:20.877Z,27.30
2023-10-10T12:55:52.853Z,27.20
2023-10-10T12:58:23.746Z,27.20
2023-10-10T13:00:52.225Z,27.20
2023-10-10T13:03:19.830Z,27.20
2023-10-10T13:05:53.275Z,27.20
2023-10-10T13:08:25.669Z,27.20
2023-10-10T13:10:56.253Z,27.10
2023-10-10T13:13:32.754Z,27.20
2023-10-10T13:16:23.334Z,27.10
2023-10-10T13:18:55.192Z,27.10
2023-10-10T13:21:22.746Z,27.10
2023-10-10T13:23:55.216Z,27.00
2023-10-10T13:26:24.397Z,27.00
2023-10-10T13:28:51.335Z,26.90
2023-10-10T13:31:19.392Z,26.90
2023-10-10T13:33:46.876Z,26.90
2023-10-10T13:36:16.904Z,26.80
2023-10-10T13:38:50.943Z,26.80
2023-10-10T13:41:23.613Z,26.70
2023-10-10T13:43:52.082Z,26.70
2023-10-10T13:46:20.366Z,26.60
2023-10-10T13:48:48.192Z,26.60
2023-10-10T13:51:16.934Z,26.60
2023-10-10T13:53:46.092Z,26.60
2023-10-10T13:56:18.017Z,26.50
2023-10-10T13:58:48.519Z,26.50
2023-10-10T14:01:20.156Z,26.50
2023-10-10T14:03:49.229Z,26.50
2023-10-10T14:06:21.200Z,26.40
2023-10-10T14:08:51.060Z,26.40
2023-10-10T14:11:24.691Z,26.40
2023-10-10T14:13:55.605Z,26.50
2023-10-10T14:16:24.442Z,26.40
2023-10-10T14:18:51.760Z,26.40
2023-10-10T14:21:26.702Z,26.40
2023-10-10T14:24:05.969Z,26.30
2023-10-10T14:26:37.532Z,26.30
2023-10-10T14:29:08.759Z,26.30
2023-10-10T14:31:43.494Z,26.30
2023-10-10T14:34:16.573Z,26.30
2023-10-10T14:36:43.540Z,26.30
2023-10-10T14:39:29.198Z,26.30
2023-10-10T14:41:59.846Z,26.30
2023-10-10T14:44:27.856Z,26.30
2023-10-10T14:46:59.338Z,26.30
2023-10-10T14:49:32.903Z,26.20
2023-10-10T14:52:07.673Z,26.30
2023-10-10T14:54:39.301Z,26.20
2023-10-10T14:57:07.317Z,26.20
2023-10-10T14:59:35.252Z,26.20
2023-10-10T15:02:05.211Z,26.20
2023-10-10T15:04:34.749Z,26.20
2023-10-10T15:07:05.596Z,26.10
2023-10-10T15:09:36.387Z,26.00
2023-10-10T15:12:04.588Z,26.10
2023-10-10T15:14:33.634Z,26.20
2023-10-10T15:17:02.041Z,26.20
2023-10-10T15:19:29.255Z,26.30
2023-10-10T15:21:57.403Z,26.30
2023-10-10T15:24:25.231Z,26.30
2023-10-10T15:26:52.961Z,26.40
2023-10-10T15:29:22.333Z,26.40
2023-10-10T15:31:51.468Z,26.40
2023-10-10T15:34:18.746Z,26.50
2023-10-10T15:36:47.170Z,26.50
2023-10-10T15:39:15.049Z,26.60
2023-10-10T15:41:44.357Z,26.60
2023-10-10T15:44:13.856Z,26.60
2023-10-10T15:46:43.904Z,26.60
2023-10-10T15:49:25.237Z,26.60
2023-10-10T15:52:05.249Z,26.60
2023-10-10T15:54:35.383Z,26.60
2023-10-10T15:57:09.869Z,26.60
2023-10-10T15:59:42.682Z,26.60
2023-10-10T16:02:11.191Z,26.50
2023-10-10T16:04:43.661Z,26.50
2023-10-10T16:07:12.303Z,26.40
2023-10-10T16:09:39.879Z,26.40
2023-10-10T16:12:13.523Z,26.30
2023-10-10T16:14:40.751Z,26.20
2023-10-10T16:17:07.670Z,26.20
2023-10-10T16:19:37.152Z,26.10
2023-10-10T16:22:06.208Z,26.10
2023-10-10T16:24:33.613Z,26.00
2023-10-10T16:27:01.208Z,26.00
2023-10-10T16:29:34.495Z,26.00
2023-10-10T16:32:10.041Z,25.90
2023-10-10T16:34:41.493Z,25.80
2023-10-10T16:37:10.737Z,25.80
2023-10-10T16:39:39.941Z,25.70
2023-10-10T16:42:06.833Z,25.60
2023-10-10T16:44:34.956Z,25.60
2023-10-10T16:47:02.402Z,25.60
2023-10-10T16:49:29.425Z,25.50
2023-10-10T16:51:58.488Z,25.50
2023-10-10T16:54:27.096Z,25.50
2023-10-10T16:56:58.827Z,25.40
2023-10-10T16:59:25.827Z,25.40
2023-10-10T17:01:52.697Z,25.40
2023-10-10T17:04:20.830Z,25.30
2023-10-10T17:06:49.945Z,25.40
2023-10-10T17:09:17.125Z,25.30
2023-10-10T17:11:45.800Z,25.30
2023-10-10T17:14:14.527Z,25.20
2023-10-10T17:16:41.367Z,25.20
2023-10-10T17:19:16.847Z,25.20
2023-10-10T17:21:47.438Z,25.10
2023-10-10T17:24:21.968Z,25.10
2023-10-10T17:26:49.095Z,25.00
2023-10-10T17:29:16.482Z,24.90
2023-10-10T17:31:43.932Z,24.90
2023-10-10T17:34:16.469Z,24.90
2023-10-10T17:36:44.574Z,24.90
2023-10-10T17:39:16.365Z,24.80
2023-10-10T17:41:48.452Z,24.80
2023-10-10T17:44:18.081Z,24.70
2023-10-10T17:46:46.755Z,24.70
2023-10-10T17:49:13.732Z,24.70
2023-10-10T17:51:45.416Z,24.60
2023-10-10T17:54:12.874Z,24.60
2023-10-10T17:56:39.748Z,24.50
2023-10-10T17:59:07.455Z,24.50
2023-10-10T18:01:34.616Z,24.50
2023-10-10T18:04:04.385Z,24.50
2023-10-10T18:06:36.048Z,24.40
2023-10-10T18:09:08.901Z,24.40
2023-10-10T18:11:37.809Z,24.40
2023-10-10T18:14:08.967Z,24.40
2023-10-10T18:16:36.326Z,24.30
2023-10-10T18:19:04.029Z,24.30
2023-10-10T18:21:33.150Z,24.30
2023-10-10T18:24:07.054Z,24.30
2023-10-10T18:26:38.711Z,24.20
2023-10-10T18:29:07.155Z,24.10
2023-10-10T18:31:39.342Z,24.10
2023-10-10T18:34:06.678Z,24.10
2023-10-10T18:36:37.915Z,24.10
2023-10-10T18:39:12.823Z,24.10
2023-10-10T18:41:44.506Z,24.00
2023-10-10T18:44:12.958Z,24.00
2023-10-10T18:46:39.902Z,24.00
2023-10-10T18:49:06.950Z,24.00
2023-10-10T18:51:35.026Z,24.00
2023-10-10T18:54:01.947Z,24.00
2023-10-10T18:56:28.864Z,24.00
2023-10-10T18:58:56.520Z,24.00
2023-10-10T19:01:23.732Z,24.00
2023-10-10T19:03:50.858Z,24.00
2023-10-10T19:06:21.049Z,23.90
2023-10-10T19:08:49.346Z,23.90
2023-10-10T19:11:24.494Z,23.90
2023-10-10T19:13:51.581Z,23.80
2023-10-10T19:16:19.635Z,23.80
2023-10-10T19:18:47.024Z,23.80
2023-10-10T19:21:18.461Z,23.80
2023-10-10T19:23:50.982Z,23.80
2023-10-10T19:26:19.334Z,23.80
2023-10-10T19:28:54.351Z,23.80
2023-10-10T19:31:23.805Z,23.70
2023-10-10T19:33:51.488Z,23.70
2023-10-10T19:36:20.965Z,23.60
2023-10-10T19:38:48.094Z,23.60
2023-10-10T19:41:15.790Z,23.50
2023-10-10T19:43:43.700Z,23.50
2023-10-10T19:46:13.341Z,23.50
2023-10-10T19:48:44.155Z,23.50
2023-10-10T19:51:17.992Z,23.50
2023-10-10T19:53:46.049Z,23.50
2023-10-10T19:56:15.672Z,23.40
2023-10-10T19:58:46.567Z,23.40
2023-10-10T20:01:14.012Z,23.50
2023-10-10T20:03:44.439Z,23.40
2023-10-10T20:06:16.470Z,23.40
2023-10-10T20:08:43.397Z,23.40
2023-10-10T20:11:10.318Z,23.40
2023-10-10T20:13:37.184Z,23.40
2023-10-10T20:16:13.011Z,23.30
2023-10-10T20:18:45.096Z,23.30
2023-10-10T20:21:14.635Z,23.30
2023-10-10T20:23:43.149Z,23.30
2023-10-10T20:26:19.505Z,23.30
2023-10-10T20:28:48.333Z,23.30
2023-10-10T20:31:18.077Z,23.20
2023-10-10T20:33:48.472Z,23.20
2023-10-10T20:36:16.641Z,23.20
2023-10-10T20:38:44.375Z,23.20
2023-10-10T20:41:12.699Z,23.20
2023-10-10T20:43:43.374Z,23.20
2023-10-10T20:46:12.968Z,23.20
2023-10-10T20:48:41.117Z,23.10
2023-10-10T20:51:12.763Z,23.10
2023-10-10T20:53:43.118Z,23.10
2023-10-10T20:56:10.143Z,23.10
2023-10-10T20:58:39.267Z,23.10
2023-10-10T21:01:10.796Z,23.10
2023-10-10T21:03:39.107Z,23.00
2023-10-10T21:06:06.524Z,23.00
2023-10-10T21:08:33.959Z,23.00
2023-10-10T21:11:01.150Z,23.00
2023-10-10T21:13:27.992Z,23.00
2023-10-10T21:15:54.781Z,23.00
2023-10-10T21:18:21.855Z,23.00
2023-10-10T21:21:02.752Z,23.00
2023-10-10T21:23:31.458Z,23.00
2023-10-10T21:25:58.466Z,22.90
2023-10-10T21:28:26.312Z,22.90
2023-10-10T21:30:53.841Z,22.90
2023-10-10T21:33:20.968Z,22.90
2023-10-10T21:35:50.697Z,22.90
2023-10-10T21:38:18.430Z,22.90
2023-10-10T21:40:45.309Z,22.90
2023-10-10T21:43:12.260Z,22.90
2023-10-10T21:45:40.152Z,22.90
2023-10-10T21:48:10.665Z,22.80
2023-10-10T21:50:40.407Z,22.80
2023-10-10T21:53:09.036Z,22.80
2023-10-10T21:55:38.450Z,22.80
2023-10-10T21:58:06.449Z,22.80
2023-10-10T22:00:33.786Z,22.80
2023-10-10T22:03:05.337Z,22.80
2023-10-10T22:05:33.373Z,22.80
2023-10-10T22:08:00.989Z,22.70
2023-10-10T22:10:27.995Z,22.70
2023-10-10T22:12:55.647Z,22.70
2023-10-10T22:15:26.219Z,22.70
2023-10-10T22:17:58.569Z,22.70
2023-10-10T22:20:28.956Z,22.70
2023-10-10T22:22:56.067Z,22.60
2023-10-10T22:25:23.558Z,22.70
2023-10-10T22:27:52.613Z,22.60
2023-10-10T22:30:25.767Z,22.60
2023-10-10T22:32:55.509Z,22.60
2023-10-10T22:35:23.378Z,22.60
2023-10-10T22:37:51.684Z,22.60
2023-10-10T22:40:25.899Z,22.60
2023-10-10T22:43:05.621Z,22.50
2023-10-10T22:45:39.479Z,22.60
2023-10-10T22:48:10.506Z,22.50
2023-10-10T22:50:37.674Z,22.50
2023-10-10T22:53:05.670Z,22.50
2023-10-10T22:55:36.914Z,22.50
2023-10-10T22:58:07.433Z,22.50
2023-10-10T23:00:38.463Z,22.50
2023-10-10T23:03:13.798Z,22.40
2023-10-10T23:05:43.219Z,22.40
2023-10-10T23:08:12.477Z,22.40
2023-10-10T23:10:44.417Z,22.40
2023-10-10T23:13:16.615Z,22.40
2023-10-10T23:15:50.442Z,22.40
2023-10-10T23:18:18.189Z,22.40
2023-10-10T23:20:53.022Z,22.40
2023-10-10T23:23:19.902Z,22.40
2023-10-10T23:25:49.038Z,22.40
2023-10-10T23:28:15.725Z,22.40
2023-10-10T23:30:43.818Z,22.30
2023-10-10T23:33:12.688Z,22.30
2023-10-10T23:35:40.464Z,22.30
2023-10-10T23:38:07.453Z,22.30
2023-10-10T23:40:46.917Z,22.30
2023-10-10T23:43:23.958Z,22.30
2023-10-10T23:45:58.171Z,22.30
2023-10-10T23:48:32.248Z,22.30
2023-10-10T23:50:59.999Z,22.30
2023-10-10T23:53:26.950Z,22.30
2023-10-10T23:55:57.421Z,22.30
2023-10-10T23:58:26.500Z,22.30
